Time;durP1;ratioP1;P1;durP2;ratioP2;P2;SDS_P1;SDS_P2;PMS_P1;PMS_P2;Temp;Humidity;BMP_temperature;BMP_pressure;BME280_temperature;BME280_humidity;BME280_pressure;Samples;Min_cycle;Max_cycle;Signal;HPM_P1;HPM_P2
2023/05/15 00:00:20;;;;;;;4.32;4.03;;;;;;;17.09;58.71;101286.13;6227680;28;20625;-71
2023/05/15 00:03:42;;;;;;;4.90;4.50;;;;;;;16.99;58.62;101280.00;6228542;28;20252;-70
2023/05/15 00:07:03;;;;;;;3.63;3.33;;;;;;;16.98;59.07;101280.16;6233034;28;20315;-71
2023/05/15 00:10:24;;;;;;;4.47;3.50;;;;;;;16.88;59.38;101268.53;6219894;28;20733;-71
2023/05/15 00:13:45;;;;;;;4.40;4.00;;;;;;;16.95;59.41;101269.59;6228451;28;20229;-70
2023/05/15 00:17:06;;;;;;;3.50;3.20;;;;;;;16.90;59.82;101266.53;6227992;28;20240;-69
2023/05/15 00:20:28;;;;;;;4.38;3.70;;;;;;;16.90;59.95;101264.63;6229599;28;20225;-70
2023/05/15 00:23:52;;;;;;;5.80;5.33;;;;;;;16.96;59.68;101254.97;6231710;28;20771;-71
2023/05/15 00:27:13;;;;;;;6.73;4.23;;;;;;;16.82;59.95;101251.00;6228185;28;20240;-71
2023/05/15 00:30:34;;;;;;;7.53;5.00;;;;;;;16.79;60.27;101254.09;6223522;28;20236;-71
2023/05/15 00:33:55;;;;;;;6.23;4.90;;;;;;;16.82;60.54;101245.56;6220347;28;22171;-72
2023/05/15 00:37:17;;;;;;;5.03;4.47;;;;;;;16.84;60.78;101262.59;6228841;28;20979;-71
2023/05/15 00:40:39;;;;;;;6.05;4.72;;;;;;;16.85;60.89;101245.25;6206861;28;20240;-71
2023/05/15 00:44:00;;;;;;;8.00;3.33;;;;;;;16.84;60.99;101250.84;6234529;28;20867;-70
2023/05/15 00:47:22;;;;;;;5.07;4.55;;;;;;;16.83;60.94;101250.00;6215724;28;20244;-71
2023/05/15 00:50:44;;;;;;;5.33;4.83;;;;;;;16.73;60.92;101239.25;6215778;28;20240;-71
2023/05/15 00:54:07;;;;;;;5.17;4.33;;;;;;;16.75;60.91;101244.56;6235343;28;20236;-71
2023/05/15 00:57:29;;;;;;;5.03;4.53;;;;;;;16.74;61.04;101235.53;6214143;28;20224;-70
2023/05/15 01:00:50;;;;;;;4.05;3.65;;;;;;;16.71;61.40;101233.13;6225018;28;20232;-70
2023/05/15 01:04:11;;;;;;;9.10;4.53;;;;;;;16.64;61.46;101239.41;6211316;28;20225;-70
2023/05/15 01:07:40;;;;;;;4.33;3.97;;;;;;;16.58;61.55;101230.00;6219191;28;20232;-71
2023/05/15 01:11:04;;;;;;;3.90;3.40;;;;;;;16.66;62.00;101227.34;6216125;28;20232;-71
2023/05/15 01:14:24;;;;;;;4.43;4.13;;;;;;;16.66;61.77;101229.22;6199960;28;20224;-70
2023/05/15 01:17:45;;;;;;;4.90;4.40;;;;;;;16.61;61.66;101232.41;6234323;28;20509;-70
2023/05/15 01:21:46;;;;;;;5.17;4.20;;;;;;;16.58;62.01;101215.56;6236277;28;20240;-71
2023/05/15 01:25:40;;;;;;;4.83;4.43;;;;;;;16.62;62.11;101214.22;6233564;28;20224;-71
2023/05/15 01:29:08;;;;;;;6.73;4.07;;;;;;;16.49;61.99;101217.44;6220211;28;20236;-71
2023/05/15 01:32:35;;;;;;;4.70;4.30;;;;;;;16.51;62.06;101218.09;6232032;28;20618;-70
2023/05/15 01:36:04;;;;;;;4.40;4.10;;;;;;;16.48;62.31;101221.13;6211656;28;20220;-71
2023/05/15 01:39:27;;;;;;;4.13;3.73;;;;;;;16.45;62.51;101213.31;6205889;28;20216;-71
2023/05/15 01:42:53;;;;;;;4.60;4.23;;;;;;;16.51;62.00;101215.38;6220618;28;20237;-71
2023/05/15 01:46:21;;;;;;;5.37;4.87;;;;;;;16.53;61.90;101207.03;6232582;28;20233;-72
2023/05/15 01:49:45;;;;;;;6.17;4.30;;;;;;;16.40;62.26;101206.63;6212314;28;20254;-71
2023/05/15 01:53:09;;;;;;;6.60;4.10;;;;;;;16.46;62.48;101203.25;6209092;28;20233;-71
2023/05/15 01:56:31;;;;;;;5.80;4.53;;;;;;;16.26;62.34;101204.56;6228041;28;20228;-70
2023/05/15 01:59:53;;;;;;;3.57;3.27;;;;;;;16.27;62.66;101193.50;6219741;28;20245;-70
2023/05/15 02:03:15;;;;;;;4.57;4.10;;;;;;;16.20;62.87;101202.50;6197503;28;20236;-71
2023/05/15 02:06:37;;;;;;;3.77;3.43;;;;;;;16.12;63.35;101207.91;6216389;28;20244;-70
2023/05/15 02:09:59;;;;;;;4.70;4.23;;;;;;;16.08;63.29;101201.94;6215488;28;20240;-71
2023/05/15 02:13:22;;;;;;;3.57;3.27;;;;;;;16.00;63.96;101202.75;6220000;28;20832;-71
2023/05/15 02:16:43;;;;;;;5.07;4.30;;;;;;;15.94;63.76;101205.25;6224598;28;20228;-71
2023/05/15 02:20:06;;;;;;;4.67;4.27;;;;;;;15.93;63.47;101200.84;6219283;28;20343;-71
2023/05/15 02:23:27;;;;;;;4.73;4.30;;;;;;;15.81;63.95;101205.69;6224796;28;20324;-70
2023/05/15 02:26:56;;;;;;;5.87;4.50;;;;;;;15.78;64.11;101200.59;6225157;28;20242;-70
2023/05/15 02:30:30;;;;;;;4.70;4.33;;;;;;;15.80;64.02;101201.28;6230510;28;20228;-71
2023/05/15 02:33:58;;;;;;;4.43;3.83;;;;;;;15.75;63.89;101198.19;6208157;28;20236;-70
2023/05/15 02:37:27;;;;;;;6.07;4.73;;;;;;;15.74;64.03;101196.50;6203252;28;20232;-70
2023/05/15 02:40:48;;;;;;;4.37;3.97;;;;;;;15.67;63.90;101194.56;6233173;28;20255;-71
2023/05/15 02:44:11;;;;;;;4.27;3.93;;;;;;;15.63;64.20;101193.19;6200617;28;20240;-71
2023/05/15 02:47:34;;;;;;;3.40;3.10;;;;;;;15.64;64.27;101195.78;6216074;28;20233;-72
2023/05/15 02:50:55;;;;;;;7.50;4.47;;;;;;;15.57;64.71;101193.84;6206774;28;20229;-71
2023/05/15 02:54:18;;;;;;;7.00;4.50;;;;;;;15.43;64.92;101183.56;6200416;28;20594;-70
2023/05/15 02:57:39;;;;;;;6.13;4.67;;;;;;;15.51;64.90;101183.63;6213058;28;20669;-70
2023/05/15 03:00:59;;;;;;;6.60;5.07;;;;;;;15.43;65.20;101184.44;6224460;28;20252;-71
2023/05/15 03:04:20;;;;;;;6.23;5.40;;;;;;;15.30;65.01;101173.09;6221874;28;20233;-70
2023/05/15 03:07:41;;;;;;;5.97;5.37;;;;;;;15.35;65.04;101169.91;6206091;28;20746;-71
2023/05/15 03:11:03;;;;;;;6.13;5.03;;;;;;;15.27;65.56;101169.84;6216400;28;20237;-71
2023/05/15 03:14:24;;;;;;;7.80;5.53;;;;;;;15.32;65.32;101170.22;6216775;28;20221;-70
2023/05/15 03:17:45;;;;;;;6.67;6.00;;;;;;;15.21;65.53;101161.31;6213065;28;20533;-71
2023/05/15 03:21:06;;;;;;;6.57;5.60;;;;;;;15.25;65.52;101163.72;6217572;28;20240;-70
2023/05/15 03:24:27;;;;;;;5.70;4.97;;;;;;;15.06;66.09;101167.50;6192821;28;20232;-69
2023/05/15 03:27:49;;;;;;;6.93;5.80;;;;;;;15.08;66.24;101170.91;6218306;28;20625;-71
2023/05/15 03:31:10;;;;;;;9.67;4.93;;;;;;;15.04;66.10;101162.19;6214702;28;20237;-71
2023/05/15 03:34:31;;;;;;;5.77;5.20;;;;;;;15.05;66.55;101152.19;6229250;28;20235;-71
2023/05/15 03:37:51;;;;;;;6.53;5.60;;;;;;;15.06;66.62;101160.19;6211023;28;20216;-71
2023/05/15 03:41:12;;;;;;;20.83;17.57;;;;;;;15.09;66.90;101156.31;6213512;28;20228;-71
2023/05/15 03:44:34;;;;;;;18.13;16.20;;;;;;;15.16;66.90;101152.78;6232439;28;20228;-70
2023/05/15 03:47:55;;;;;;;9.47;8.57;;;;;;;15.19;66.78;101148.91;6210012;28;20319;-71
2023/05/15 03:51:17;;;;;;;8.33;7.47;;;;;;;15.24;66.30;101146.56;6213181;28;20233;-70
2023/05/15 03:54:38;;;;;;;7.70;6.23;;;;;;;15.21;66.42;101149.59;6229014;28;20231;-71
2023/05/15 03:57:59;;;;;;;7.17;5.87;;;;;;;15.20;66.40;101151.47;6216754;28;21042;-71
2023/05/15 04:01:23;;;;;;;11.67;9.80;;;;;;;15.31;67.01;101144.06;6225400;28;22045;-71
2023/05/15 04:04:43;;;;;;;15.17;9.60;;;;;;;15.23;66.82;101149.44;6228595;28;20232;-71
2023/05/15 04:08:05;;;;;;;13.37;11.97;;;;;;;15.20;66.82;101146.03;6216371;28;20228;-71
2023/05/15 04:11:26;;;;;;;11.50;9.57;;;;;;;15.11;66.96;101141.56;6226609;28;20245;-71
2023/05/15 04:14:46;;;;;;;10.97;9.80;;;;;;;15.11;67.11;101143.41;6231544;28;20233;-70
2023/05/15 04:18:09;;;;;;;9.33;8.37;;;;;;;15.12;66.99;101142.41;6218836;28;20259;-71
2023/05/15 04:21:30;;;;;;;13.50;10.13;;;;;;;15.18;66.77;101139.06;6222447;28;20220;-71
2023/05/15 04:24:51;;;;;;;8.87;8.17;;;;;;;15.21;67.09;101141.44;6227299;28;20228;-71
2023/05/15 04:28:11;;;;;;;9.17;8.27;;;;;;;15.51;66.65;101138.28;6216716;28;20607;-71
2023/05/15 04:31:33;;;;;;;7.63;6.90;;;;;;;15.65;66.53;101137.66;6216280;28;20237;-71
2023/05/15 04:34:56;;;;;;;7.17;6.47;;;;;;;15.59;66.29;101132.88;6227926;28;20225;-71
2023/05/15 04:38:17;;;;;;;7.90;6.17;;;;;;;15.56;65.90;101132.38;6211423;28;20236;-71
2023/05/15 04:41:37;;;;;;;8.43;7.60;;;;;;;15.62;66.02;101121.69;6214314;28;20224;-71
2023/05/15 04:44:58;;;;;;;6.73;5.83;;;;;;;15.77;65.87;101130.91;6235110;28;20232;-71
2023/05/15 04:48:19;;;;;;;8.13;5.17;;;;;;;15.82;65.68;101125.84;6217611;28;20224;-71
2023/05/15 04:51:41;;;;;;;6.73;5.83;;;;;;;15.88;65.11;101127.91;6223677;28;20232;-71
2023/05/15 04:55:02;;;;;;;6.33;5.83;;;;;;;15.82;65.78;101130.44;6233915;28;20232;-71
2023/05/15 04:58:23;;;;;;;5.57;5.17;;;;;;;15.82;65.39;101130.44;6219228;28;20220;-71
2023/05/15 05:01:45;;;;;;;6.83;6.13;;;;;;;16.07;65.38;101128.66;6215168;28;20236;-71
2023/05/15 05:05:07;;;;;;;6.90;6.20;;;;;;;16.15;64.67;101134.09;6224268;28;20233;-72
2023/05/15 05:08:29;;;;;;;6.63;6.13;;;;;;;16.05;64.62;101139.69;6218657;28;20256;-71
2023/05/15 05:11:49;;;;;;;6.23;4.73;;;;;;;16.28;64.55;101129.06;6205138;28;20240;-73
2023/05/15 05:15:11;;;;;;;7.03;6.13;;;;;;;16.27;64.22;101130.91;6232861;28;21211;-71
2023/05/15 05:18:32;;;;;;;6.00;5.50;;;;;;;16.40;63.85;101127.72;6200327;28;20232;-72
2023/05/15 05:21:53;;;;;;;6.73;6.13;;;;;;;16.49;63.94;101124.88;6210865;28;20253;-72
2023/05/15 05:25:15;;;;;;;6.13;5.53;;;;;;;16.39;63.63;101124.16;6212648;28;20233;-70
2023/05/15 05:28:36;;;;;;;5.90;5.30;;;;;;;16.63;63.44;101126.94;6207772;28;20315;-73
2023/05/15 05:31:57;;;;;;;8.67;5.80;;;;;;;16.63;63.00;101128.78;6214033;28;20229;-70
2023/05/15 05:35:18;;;;;;;6.43;5.17;;;;;;;16.77;62.83;101128.97;6218185;28;20534;-70
2023/05/15 05:38:39;;;;;;;7.77;5.03;;;;;;;16.93;62.68;101130.00;6213958;28;20532;-71
2023/05/15 05:42:01;;;;;;;4.73;4.33;;;;;;;17.01;62.41;101127.25;6213482;28;20232;-69
2023/05/15 05:45:22;;;;;;;13.23;11.83;;;;;;;17.05;61.80;101121.31;6220665;28;20228;-69
2023/05/15 05:48:42;;;;;;;9.97;8.20;;;;;;;17.06;61.77;101125.75;6202550;28;21694;-69
2023/05/15 05:52:08;;;;;;;7.70;7.00;;;;;;;17.25;61.54;101114.44;6200541;28;20233;-76
2023/05/15 05:55:28;;;;;;;7.67;5.93;;;;;;;17.43;61.62;101123.28;6222035;28;20776;-70
2023/05/15 05:58:50;;;;;;;6.63;5.53;;;;;;;17.61;61.70;101117.63;6221426;28;20323;-68
2023/05/15 06:02:12;;;;;;;8.63;6.37;;;;;;;17.60;61.36;101120.53;6210488;28;20365;-68
2023/05/15 06:05:33;;;;;;;4.97;4.57;;;;;;;17.78;60.80;101119.28;6226558;28;20241;-68
2023/05/15 06:08:54;;;;;;;5.23;4.83;;;;;;;17.94;60.47;101108.28;6218908;28;20233;-68
2023/05/15 06:12:15;;;;;;;6.57;4.47;;;;;;;18.17;59.86;101109.19;6210130;28;20308;-69
2023/05/15 06:15:37;;;;;;;4.20;3.90;;;;;;;18.12;59.27;101102.56;6216145;28;20237;-69
2023/05/15 06:18:58;;;;;;;3.85;3.55;;;;;;;18.27;59.04;101106.25;6195408;28;20722;-69
2023/05/15 06:22:19;;;;;;;9.35;5.57;;;;;;;18.42;58.33;101098.13;6212420;28;21306;-68
2023/05/15 06:25:40;;;;;;;6.70;4.80;;;;;;;18.55;58.10;101095.66;6223152;28;20228;-69
2023/05/15 06:29:01;;;;;;;4.95;4.13;;;;;;;18.85;58.03;101097.47;6200262;28;22141;-68
2023/05/15 06:32:23;;;;;;;3.97;3.33;;;;;;;18.86;56.45;101094.53;6209867;28;20237;-69
2023/05/15 06:35:45;;;;;;;3.67;3.40;;;;;;;18.91;55.54;101096.72;6224311;28;20614;-69
2023/05/15 06:39:05;;;;;;;3.55;2.58;;;;;;;19.32;56.65;101094.41;6211933;28;20236;-69
2023/05/15 06:42:26;;;;;;;3.08;2.55;;;;;;;19.22;53.51;101091.97;6214955;28;20224;-68
2023/05/15 06:45:47;;;;;;;3.47;2.95;;;;;;;19.27;52.60;101092.28;6227428;28;20355;-67
2023/05/15 06:49:09;;;;;;;3.35;3.05;;;;;;;19.52;53.50;101093.75;6214651;28;20228;-67
2023/05/15 06:52:30;;;;;;;3.35;3.15;;;;;;;19.77;52.58;101094.28;6206725;28;20601;-68
2023/05/15 06:55:51;;;;;;;2.70;2.47;;;;;;;19.80;52.37;101092.00;6217407;28;20237;-68
2023/05/15 06:59:12;;;;;;;4.75;4.10;;;;;;;19.86;52.05;101084.91;6206412;28;20567;-69
2023/05/15 07:02:33;;;;;;;3.85;2.83;;;;;;;19.96;51.37;101076.41;6210575;28;20222;-68
2023/05/15 07:05:56;;;;;;;2.95;2.58;;;;;;;20.06;50.99;101075.06;6219697;28;20350;-69
2023/05/15 07:09:16;;;;;;;2.80;2.60;;;;;;;19.99;50.68;101076.88;6210616;28;22115;-69
2023/05/15 07:12:37;;;;;;;2.45;2.25;;;;;;;20.23;49.92;101073.84;6212124;28;21043;-69
2023/05/15 07:15:58;;;;;;;2.50;2.30;;;;;;;20.21;49.92;101062.22;6222572;28;20229;-69
2023/05/15 07:19:20;;;;;;;1.58;1.48;;;;;;;20.45;51.00;101066.47;6208902;28;20293;-68
2023/05/15 07:22:42;;;;;;;4.30;2.47;;;;;;;20.40;50.36;101063.47;6214915;28;20606;-69
2023/05/15 07:26:03;;;;;;;3.13;1.90;;;;;;;20.76;49.30;101060.66;6220414;28;20434;-68
2023/05/15 07:29:24;;;;;;;2.85;2.45;;;;;;;20.87;49.41;101057.34;6211318;28;21204;-69
2023/05/15 07:32:44;;;;;;;2.30;2.15;;;;;;;21.03;49.70;101057.09;6206796;28;20394;-68
2023/05/15 07:36:06;;;;;;;2.75;2.55;;;;;;;21.12;48.40;101058.63;6228989;28;20244;-68
2023/05/15 07:39:28;;;;;;;3.47;2.30;;;;;;;21.19;47.56;101049.44;6208404;28;20272;-69
2023/05/15 07:42:49;;;;;;;2.28;2.08;;;;;;;21.11;47.86;101048.75;6214373;28;20237;-67
2023/05/15 07:46:10;;;;;;;2.45;2.25;;;;;;;21.18;47.38;101042.25;6218690;28;20626;-68
2023/05/15 07:49:31;;;;;;;1.98;1.85;;;;;;;21.20;47.33;101045.63;6201199;28;20221;-69
2023/05/15 07:52:51;;;;;;;2.25;2.15;;;;;;;21.46;45.75;101031.22;6203200;28;20233;-69
2023/05/15 07:56:14;;;;;;;1.85;1.75;;;;;;;21.60;45.55;101043.09;6228221;28;20265;-69
2023/05/15 07:59:34;;;;;;;1.80;1.70;;;;;;;21.83;45.72;101038.19;6223973;28;20247;-69
2023/05/15 08:02:55;;;;;;;2.15;1.92;;;;;;;21.63;44.61;101034.47;6212142;28;20233;-69
2023/05/15 08:06:16;;;;;;;1.58;1.48;;;;;;;21.95;44.62;101025.53;6227048;28;20237;-69
2023/05/15 08:09:37;;;;;;;2.03;1.92;;;;;;;22.10;43.81;101028.97;6220682;28;20228;-68
2023/05/15 08:12:59;;;;;;;3.42;1.92;;;;;;;22.39;45.08;101020.38;6215181;28;20225;-67
2023/05/15 08:16:20;;;;;;;3.08;1.45;;;;;;;22.74;44.54;101018.28;6225612;28;20229;-67
2023/05/15 08:19:41;;;;;;;1.50;1.40;;;;;;;22.60;42.56;101016.59;6226483;28;20232;-67
2023/05/15 08:23:02;;;;;;;1.38;1.27;;;;;;;22.58;43.50;101008.59;6213347;28;20233;-68
2023/05/15 08:26:23;;;;;;;3.70;1.85;;;;;;;22.65;43.61;101000.34;6206768;28;20233;-68
2023/05/15 08:29:46;;;;;;;2.25;1.98;;;;;;;22.72;44.03;101003.91;6206787;28;20245;-70
2023/05/15 08:33:07;;;;;;;4.53;1.98;;;;;;;22.58;42.97;100992.09;6213514;28;20312;-70
2023/05/15 08:36:27;;;;;;;5.25;2.15;;;;;;;22.74;43.33;100996.31;6240082;28;20233;-70
2023/05/15 08:39:48;;;;;;;2.33;2.13;;;;;;;22.60;42.95;100995.47;6233037;28;20232;-70
2023/05/15 08:43:14;;;;;;;2.10;1.90;;;;;;;22.44;42.17;100997.75;6220109;28;20228;-70
2023/05/15 08:46:36;;;;;;;7.82;2.00;;;;;;;22.69;43.03;101001.59;6221867;28;20241;-69
2023/05/15 08:50:03;;;;;;;2.08;1.88;;;;;;;23.12;43.79;101004.72;6195886;28;20621;-70
2023/05/15 08:53:24;;;;;;;2.80;2.60;;;;;;;23.02;42.53;100996.91;6215530;28;20253;-70
2023/05/15 08:56:45;;;;;;;1.63;1.52;;;;;;;23.45;41.85;100983.50;6222864;28;20227;-70
2023/05/15 09:00:08;;;;;;;2.75;2.45;;;;;;;22.77;40.83;100993.13;6227771;28;20228;-70
2023/05/15 09:03:30;;;;;;;3.03;2.17;;;;;;;22.96;42.11;100984.03;6212325;28;20311;-69
2023/05/15 09:06:53;;;;;;;2.35;1.77;;;;;;;23.38;42.58;100982.69;6220286;28;20236;-70
2023/05/15 09:10:14;;;;;;;2.47;2.28;;;;;;;23.50;40.98;100981.78;6224364;28;20232;-69
2023/05/15 09:13:35;;;;;;;1.90;1.80;;;;;;;23.27;41.28;100978.66;6214331;28;20237;-70
2023/05/15 09:16:56;;;;;;;1.85;1.75;;;;;;;23.34;40.59;100974.03;6215555;28;20256;-69
2023/05/15 09:20:29;;;;;;;2.45;2.25;;;;;;;23.38;40.65;100980.78;6223636;28;20225;-69
2023/05/15 09:23:50;;;;;;;1.52;1.33;;;;;;;23.24;40.73;100978.25;6192539;28;20233;-69
2023/05/15 09:27:11;;;;;;;2.85;1.90;;;;;;;22.98;40.34;100977.25;6211442;28;20256;-70
2023/05/15 09:30:33;;;;;;;1.15;1.10;;;;;;;23.24;40.02;100970.00;6228435;28;20354;-69
2023/05/15 09:34:00;;;;;;;2.95;2.22;;;;;;;23.52;39.18;100968.66;6213750;28;20232;-70
2023/05/15 09:37:33;;;;;;;3.95;2.63;;;;;;;23.86;39.25;100961.94;6218530;28;20232;-70
2023/05/15 09:41:02;;;;;;;3.85;2.35;;;;;;;23.59;38.46;100966.69;6231660;28;20228;-69
2023/05/15 09:44:25;;;;;;;2.65;1.77;;;;;;;23.59;39.13;100963.13;6226044;28;20236;-69
2023/05/15 09:47:46;;;;;;;3.25;1.52;;;;;;;23.57;39.09;100960.56;6216495;28;20228;-69
2023/05/15 09:51:14;;;;;;;1.40;1.30;;;;;;;23.98;40.50;100959.31;6235638;28;20589;-69
2023/05/15 09:54:37;;;;;;;1.30;1.20;;;;;;;24.11;38.19;100956.50;6231258;28;20228;-69
2023/05/15 09:58:07;;;;;;;1.98;1.77;;;;;;;23.93;38.90;100950.88;6196898;28;20323;-69
2023/05/15 10:01:28;;;;;;;5.18;2.05;;;;;;;23.83;37.48;100946.69;6214450;28;20320;-67
2023/05/15 10:04:54;;;;;;;2.15;1.45;;;;;;;24.26;38.80;100946.84;6227458;28;20251;-68
2023/05/15 10:08:16;;;;;;;1.80;1.65;;;;;;;24.08;37.45;100943.16;6220459;28;20236;-69
2023/05/15 10:11:40;;;;;;;2.47;2.17;;;;;;;24.72;38.17;100948.38;6217608;28;20236;-71
2023/05/15 10:15:01;;;;;;;1.83;1.60;;;;;;;24.42;36.53;100939.94;6217663;28;20550;-71
2023/05/15 10:18:25;;;;;;;1.73;1.63;;;;;;;24.29;37.80;100940.88;6217065;28;20598;-73
2023/05/15 10:21:47;;;;;;;1.52;1.40;;;;;;;24.26;38.38;100935.00;6215525;28;22202;-72
2023/05/15 10:25:13;;;;;;;1.65;1.55;;;;;;;24.64;36.33;100940.41;6222082;28;20228;-72
2023/05/15 10:28:37;;;;;;;4.60;2.30;;;;;;;25.33;36.08;100932.66;6193464;28;20506;-72
2023/05/15 10:31:59;;;;;;;2.22;2.03;;;;;;;25.08;36.56;100932.72;6214479;28;20229;-72
2023/05/15 10:35:22;;;;;;;1.77;1.67;;;;;;;25.19;36.38;100922.84;6220847;28;20641;-70
2023/05/15 10:38:43;;;;;;;2.00;1.90;;;;;;;24.35;36.93;100922.59;6187189;28;20802;-72
2023/05/15 10:42:06;;;;;;;2.65;2.55;;;;;;;23.93;36.46;100920.59;6195803;28;20233;-68
2023/05/15 10:45:29;;;;;;;3.90;1.98;;;;;;;23.25;36.55;100919.41;6206697;28;20229;-70
2023/05/15 10:48:51;;;;;;;2.47;1.48;;;;;;;23.25;38.12;100911.16;6224136;28;20618;-72
2023/05/15 10:52:12;;;;;;;2.38;1.40;;;;;;;23.24;38.17;100917.72;6201891;28;20234;-72
2023/05/15 10:55:33;;;;;;;2.20;1.75;;;;;;;23.11;38.85;100917.78;6212395;28;20640;-71
2023/05/15 10:58:55;;;;;;;9.10;8.35;;;;;;;23.28;39.43;100916.22;6210831;28;20311;-67
2023/05/15 11:02:22;;;;;;;2.97;2.72;;;;;;;23.92;37.12;100910.59;6208796;28;20232;-68
2023/05/15 11:06:09;;;;;;;4.78;2.50;;;;;;;23.78;37.52;100918.94;6215629;28;20236;-69
2023/05/15 11:09:37;;;;;;;2.05;1.90;;;;;;;23.80;38.13;100903.03;6216127;28;20319;-69
2023/05/15 11:12:59;;;;;;;2.00;1.83;;;;;;;23.42;37.31;100902.22;6214347;28;20232;-68
2023/05/15 11:16:53;;;;;;;2.65;2.42;;;;;;;23.50;36.71;100910.22;6227119;28;20334;-70
2023/05/15 11:20:15;;;;;;;2.70;2.45;;;;;;;23.77;36.84;100903.50;6224078;28;20236;-70
2023/05/15 11:23:41;;;;;;;2.05;1.85;;;;;;;23.52;36.65;100905.34;6209619;28;20232;-69
2023/05/15 11:27:03;;;;;;;1.80;1.70;;;;;;;23.38;36.65;100898.22;6219363;28;20236;-68
2023/05/15 11:30:35;;;;;;;7.55;1.58;;;;;;;23.58;38.62;100895.34;6225606;28;20233;-69
2023/05/15 11:33:56;;;;;;;2.28;1.13;;;;;;;23.59;38.67;100892.38;6220116;28;20505;-69
2023/05/15 11:37:18;;;;;;;3.72;1.90;;;;;;;23.51;37.25;100887.13;6217151;28;20241;-70
2023/05/15 11:40:46;;;;;;;1.55;1.45;;;;;;;23.84;38.07;100885.00;6230493;28;20228;-68
2023/05/15 11:44:07;;;;;;;3.00;1.85;;;;;;;23.87;38.13;100883.72;6221545;28;20443;-70
2023/05/15 11:47:30;;;;;;;4.47;1.75;;;;;;;23.95;36.43;100877.13;6226342;28;20232;-68
2023/05/15 11:50:52;;;;;;;1.90;1.75;;;;;;;24.15;38.32;100875.09;6228399;28;20233;-69
2023/05/15 11:54:15;;;;;;;2.33;1.65;;;;;;;24.28;37.38;100877.72;6216534;28;20229;-68
2023/05/15 11:57:37;;;;;;;2.58;1.83;;;;;;;23.98;37.05;100871.16;6209654;28;20253;-69
2023/05/15 12:00:58;;;;;;;2.55;2.17;;;;;;;23.90;36.69;100868.69;6222360;28;20237;-69
2023/05/15 12:04:19;;;;;;;1.95;1.85;;;;;;;23.97;36.61;100867.56;6211578;28;20373;-71
2023/05/15 12:07:42;;;;;;;2.50;1.48;;;;;;;24.14;37.20;100865.97;6207087;28;20318;-69
2023/05/15 12:11:05;;;;;;;3.90;2.05;;;;;;;23.96;36.84;100870.53;6228417;28;20229;-69
2023/05/15 12:14:27;;;;;;;2.80;2.28;;;;;;;24.15;38.12;100872.31;6208091;28;20510;-71
2023/05/15 12:17:50;;;;;;;4.00;2.85;;;;;;;24.04;37.64;100864.78;6212628;28;20334;-72
2023/05/15 12:21:10;;;;;;;23.50;5.63;;;;;;;23.66;36.37;100867.56;6224592;28;20225;-70
2023/05/15 12:24:31;;;;;;;12.43;3.47;;;;;;;23.39;37.12;100871.53;6208286;28;20228;-71
2023/05/15 12:27:54;;;;;;;2.97;1.40;;;;;;;23.45;37.20;100873.41;6208940;28;20241;-69
2023/05/15 12:31:16;;;;;;;1.70;1.60;;;;;;;23.17;37.20;100862.72;6208906;28;20240;-68
2023/05/15 12:34:37;;;;;;;5.05;2.10;;;;;;;23.09;37.69;100870.38;6231349;28;20247;-69
2023/05/15 12:37:58;;;;;;;1.50;1.40;;;;;;;22.91;38.46;100873.81;6208053;28;20221;-69
2023/05/15 12:41:19;;;;;;;1.95;1.85;;;;;;;22.81;38.68;100862.44;6224666;28;20233;-69
2023/05/15 12:44:42;;;;;;;4.18;1.73;;;;;;;22.63;38.50;100856.78;6230507;28;20311;-70
2023/05/15 12:48:04;;;;;;;2.60;1.80;;;;;;;22.45;39.21;100865.66;6210494;28;20240;-69
2023/05/15 12:51:25;;;;;;;2.10;1.77;;;;;;;22.02;41.64;100869.91;6208502;28;20652;-70
2023/05/15 12:54:46;;;;;;;3.83;3.40;;;;;;;21.49;47.13;100869.78;6230357;28;20657;-73
2023/05/15 12:58:09;;;;;;;2.40;2.20;;;;;;;21.23;49.12;100866.13;6211277;28;20575;-69
2023/05/15 13:01:31;;;;;;;2.95;2.70;;;;;;;21.10;52.04;100866.06;6211734;28;20240;-72
2023/05/15 13:04:52;;;;;;;3.78;3.38;;;;;;;21.03;51.73;100873.41;6215543;28;20495;-75
2023/05/15 13:08:16;;;;;;;3.38;3.08;;;;;;;21.14;52.85;100862.72;6207840;28;20224;-75
2023/05/15 13:11:37;;;;;;;4.80;4.07;;;;;;;21.07;52.60;100866.47;6219776;28;20625;-70
2023/05/15 13:14:57;;;;;;;5.25;4.85;;;;;;;21.06;52.99;100857.41;6231103;28;20255;-71
2023/05/15 13:18:19;;;;;;;4.43;4.07;;;;;;;21.05;52.81;100860.38;6227873;28;20224;-70
2023/05/15 13:21:40;;;;;;;8.95;4.65;;;;;;;21.32;52.02;100857.50;6218745;28;20232;-69
2023/05/15 13:25:01;;;;;;;9.73;5.82;;;;;;;21.12;52.58;100858.47;6234434;28;20224;-74
2023/05/15 13:28:21;;;;;;;6.10;5.50;;;;;;;21.17;53.21;100854.06;6206427;28;20254;-72
2023/05/15 13:31:43;;;;;;;14.70;5.20;;;;;;;21.34;53.11;100865.53;6217065;28;20320;-73
2023/05/15 13:35:06;;;;;;;7.15;4.53;;;;;;;21.50;53.73;100856.91;6229251;28;20299;-72
2023/05/15 13:38:27;;;;;;;6.00;5.22;;;;;;;21.54;53.69;100858.19;6223577;28;21631;-72
2023/05/15 13:41:47;;;;;;;5.88;5.18;;;;;;;21.76;51.82;100854.22;6222157;28;20278;-73
2023/05/15 13:45:09;;;;;;;5.97;3.60;;;;;;;22.02;51.14;100851.53;6227075;28;20906;-72
2023/05/15 13:48:30;;;;;;;4.70;4.28;;;;;;;22.29;50.77;100855.09;6218435;28;20800;-73
2023/05/15 13:51:52;;;;;;;4.35;4.05;;;;;;;22.34;50.08;100852.56;6219959;28;20674;-73
2023/05/15 13:55:13;;;;;;;5.15;4.65;;;;;;;22.43;51.03;100848.53;6229778;28;20229;-72
2023/05/15 13:58:34;;;;;;;6.18;5.57;;;;;;;22.42;51.06;100862.50;6186230;28;20237;-72
2023/05/15 14:01:55;;;;;;;5.88;5.28;;;;;;;22.56;50.84;100866.91;6216665;28;20311;-71
2023/05/15 14:05:17;;;;;;;4.47;4.13;;;;;;;22.58;50.29;100865.66;6227148;28;20229;-70
2023/05/15 14:08:39;;;;;;;5.63;5.05;;;;;;;22.78;49.90;100857.38;6208367;28;20229;-70
2023/05/15 14:12:00;;;;;;;4.20;3.80;;;;;;;24.45;47.42;100863.13;6206600;28;20236;-66
2023/05/15 14:15:21;;;;;;;5.82;5.32;;;;;;;25.08;46.82;100871.19;6224474;28;20240;-68
2023/05/15 14:18:42;;;;;;;5.55;5.05;;;;;;;25.14;46.78;100875.75;6219036;28;20227;-67
2023/05/15 14:22:03;;;;;;;5.55;4.85;;;;;;;25.38;46.02;100864.63;6217141;28;20237;-69
2023/05/15 14:25:25;;;;;;;7.97;5.40;;;;;;;24.35;47.51;100873.84;6209131;28;20225;-69
2023/05/15 14:28:46;;;;;;;6.65;5.07;;;;;;;24.87;48.12;100874.38;6204011;28;20240;-68
2023/05/15 14:32:07;;;;;;;6.22;5.72;;;;;;;24.87;48.02;100880.75;6209759;28;20237;-68
2023/05/15 14:35:28;;;;;;;7.30;5.25;;;;;;;24.66;48.61;100896.88;6224450;28;20220;-68
2023/05/15 14:38:49;;;;;;;5.68;5.18;;;;;;;24.87;48.11;100899.22;6203468;28;20332;-68
2023/05/15 14:42:11;;;;;;;5.13;4.63;;;;;;;25.03;47.25;100880.13;6209261;28;20244;-69
2023/05/15 14:45:32;;;;;;;6.32;5.75;;;;;;;25.15;48.15;100885.75;6226791;28;20224;-67
2023/05/15 14:48:53;;;;;;;5.85;5.18;;;;;;;24.98;47.55;100879.16;6207020;28;20241;-68
2023/05/15 14:52:14;;;;;;;6.85;5.38;;;;;;;25.54;47.80;100879.72;6214715;28;20237;-68
2023/05/15 14:55:35;;;;;;;5.63;5.03;;;;;;;25.58;47.01;100880.94;6222906;28;20553;-73
2023/05/15 14:58:57;;;;;;;7.93;5.50;;;;;;;25.09;47.32;100882.00;6202389;28;20229;-73
2023/05/15 15:02:18;;;;;;;5.53;4.15;;;;;;;23.50;49.52;100879.94;6209942;28;20237;-72
2023/05/15 15:05:38;;;;;;;6.38;4.85;;;;;;;23.47;51.38;100885.03;6221863;28;20232;-72
2023/05/15 15:08:59;;;;;;;7.05;5.20;;;;;;;23.04;52.65;100877.38;6205243;28;20228;-72
2023/05/15 15:12:20;;;;;;;5.63;5.05;;;;;;;22.39;53.58;100883.00;6202162;28;20264;-73
2023/05/15 15:15:42;;;;;;;7.13;5.38;;;;;;;22.41;53.89;100883.63;6217655;28;20224;-73
2023/05/15 15:19:03;;;;;;;5.20;4.70;;;;;;;23.18;52.47;100885.56;6206619;28;20229;-74
2023/05/15 15:22:23;;;;;;;9.23;5.35;;;;;;;23.20;52.72;100883.47;6204492;28;20229;-71
2023/05/15 15:25:44;;;;;;;5.43;4.93;;;;;;;23.49;53.06;100897.50;6222074;28;20666;-71
2023/05/15 15:29:05;;;;;;;6.50;5.88;;;;;;;23.55;52.47;100888.38;6216573;28;20627;-71
2023/05/15 15:32:27;;;;;;;4.60;4.20;;;;;;;23.69;52.33;100890.00;6205349;28;20236;-72
2023/05/15 15:35:48;;;;;;;9.60;5.45;;;;;;;23.54;51.67;100889.44;6232002;28;20232;-72
2023/05/15 15:39:11;;;;;;;5.20;4.80;;;;;;;23.13;51.72;100874.38;6222941;28;20240;-71